createdAt,value
2019-04-28T00:00:06.148Z,2.17
2019-04-28T00:02:53.272Z,2.05
2019-04-28T00:05:41.572Z,2.62
2019-04-28T00:08:28.993Z,1.70
2019-04-28T00:11:16.465Z,1.85
2019-04-28T00:14:03.698Z,1.72
2019-04-28T00:16:51.385Z,1.87
2019-04-28T00:19:38.734Z,1.85
2019-04-28T00:22:34.060Z,1.80
2019-04-28T00:25:31.624Z,2.35
2019-04-28T00:28:18.626Z,2.05
2019-04-28T00:31:05.540Z,1.75
2019-04-28T00:33:52.657Z,1.90
2019-04-28T00:36:41.259Z,1.55
2019-04-28T00:39:30.906Z,1.82
2019-04-28T00:42:17.691Z,2.52
2019-04-28T00:45:09.296Z,2.25
2019-04-28T00:47:56.481Z,1.87
2019-04-28T00:50:44.459Z,2.10
2019-04-28T00:53:31.856Z,1.95
2019-04-28T00:56:19.095Z,1.60
2019-04-28T00:59:06.044Z,1.80
2019-04-28T01:01:57.802Z,1.80
2019-04-28T01:04:45.267Z,2.30
2019-04-28T01:07:33.107Z,2.17
2019-04-28T01:10:21.155Z,2.08
2019-04-28T01:13:08.144Z,2.50
2019-04-28T01:15:56.852Z,2.50
2019-04-28T01:18:45.931Z,2.47
2019-04-28T01:21:51.019Z,2.30
2019-04-28T01:24:39.870Z,2.42
2019-04-28T01:27:31.718Z,2.20
2019-04-28T01:30:23.244Z,2.27
2019-04-28T01:33:21.385Z,2.02
2019-04-28T01:36:10.367Z,2.10
2019-04-28T01:38:57.311Z,1.98
2019-04-28T01:41:45.043Z,2.30
2019-04-28T01:44:32.479Z,1.80
2019-04-28T01:47:20.449Z,1.80
2019-04-28T01:50:07.634Z,1.75
2019-04-28T01:52:55.272Z,2.85
2019-04-28T01:55:42.416Z,1.67
2019-04-28T01:58:29.760Z,1.77
2019-04-28T02:01:17.145Z,2.05
2019-04-28T02:04:04.617Z,2.10
2019-04-28T02:06:51.707Z,1.92
2019-04-28T02:09:39.593Z,1.95
2019-04-28T02:12:26.811Z,1.80
2019-04-28T02:15:14.329Z,1.92
2019-04-28T02:18:01.449Z,1.72
2019-04-28T02:20:51.149Z,1.72
2019-04-28T02:23:39.677Z,2.10
2019-04-28T02:26:27.205Z,2.20
2019-04-28T02:29:14.339Z,1.70
2019-04-28T02:32:02.482Z,2.17
2019-04-28T02:34:50.771Z,1.92
2019-04-28T02:37:40.521Z,1.98
2019-04-28T02:40:27.330Z,1.60
2019-04-28T02:43:14.817Z,2.08
2019-04-28T02:46:02.672Z,2.30
2019-04-28T02:48:53.475Z,2.50
2019-04-28T02:51:46.277Z,1.85
2019-04-28T02:54:33.444Z,1.62
2019-04-28T02:57:21.079Z,2.40
2019-04-28T03:00:10.365Z,1.82
2019-04-28T03:02:57.220Z,1.87
2019-04-28T03:05:44.894Z,2.08
2019-04-28T03:08:32.064Z,2.45
2019-04-28T03:11:20.310Z,2.00
2019-04-28T03:14:11.049Z,1.92
2019-04-28T03:16:56.576Z,2.20
2019-04-28T03:19:43.730Z,2.47
2019-04-28T03:22:33.599Z,1.82
2019-04-28T03:25:33.686Z,2.22
2019-04-28T03:28:22.764Z,2.50
2019-04-28T03:31:48.928Z,2.33
2019-04-28T03:34:04.720Z,2.25
2019-04-28T03:36:52.061Z,2.27
2019-04-28T03:39:40.551Z,2.67
2019-04-28T03:42:27.941Z,2.17
2019-04-28T03:45:17.075Z,1.92
2019-04-28T03:48:04.447Z,2.30
2019-04-28T03:50:51.917Z,2.30
2019-04-28T03:53:40.965Z,2.52
2019-04-28T03:56:30.880Z,2.70
2019-04-28T03:59:17.241Z,2.62
2019-04-28T04:02:04.932Z,2.40
2019-04-28T04:04:52.858Z,2.72
2019-04-28T04:07:43.126Z,2.17
2019-04-28T04:10:33.984Z,2.70
2019-04-28T04:13:25.936Z,2.60
2019-04-28T04:16:23.637Z,2.40
2019-04-28T04:19:15.203Z,2.83
2019-04-28T04:22:02.651Z,2.72
2019-04-28T04:24:52.448Z,2.42
2019-04-28T04:27:40.652Z,3.10
2019-04-28T04:30:30.903Z,2.85
2019-04-28T04:33:16.855Z,2.67
2019-04-28T04:36:04.115Z,2.45
2019-04-28T04:38:51.818Z,2.65
2019-04-28T04:41:40.889Z,3.00
2019-04-28T04:44:30.850Z,2.67
2019-04-28T04:47:16.862Z,2.95
2019-04-28T04:50:06.030Z,2.72
2019-04-28T04:52:53.592Z,2.42
2019-04-28T04:55:41.126Z,2.83
2019-04-28T04:58:30.409Z,2.65
2019-04-28T05:01:25.300Z,2.40
2019-04-28T05:04:17.344Z,2.40
2019-04-28T05:07:04.679Z,3.08
2019-04-28T05:09:51.832Z,2.30
2019-04-28T05:12:40.406Z,2.50
2019-04-28T05:15:27.889Z,2.90
2019-04-28T05:18:15.107Z,2.52
2019-04-28T05:21:02.052Z,2.50
2019-04-28T05:23:54.170Z,2.62
2019-04-28T05:26:47.517Z,2.37
2019-04-28T05:29:30.742Z,2.45
2019-04-28T05:32:18.139Z,2.80
2019-04-28T05:35:05.964Z,2.42
2019-04-28T05:37:52.708Z,2.30
2019-04-28T05:40:39.975Z,2.30
2019-04-28T05:43:27.246Z,2.40
2019-04-28T05:46:14.877Z,2.60
2019-04-28T05:49:04.040Z,2.90
2019-04-28T05:52:11.868Z,2.75
2019-04-28T05:55:10.146Z,2.90
2019-04-28T05:58:01.991Z,2.83
2019-04-28T06:00:56.988Z,3.58
2019-04-28T06:03:44.944Z,2.67
2019-04-28T06:06:33.322Z,2.70
2019-04-28T06:09:22.081Z,2.87
2019-04-28T06:12:10.881Z,2.58
2019-04-28T06:14:57.752Z,3.02
2019-04-28T06:17:44.703Z,3.30
2019-04-28T06:20:31.868Z,3.83
2019-04-28T06:23:19.318Z,3.90
2019-04-28T06:26:06.804Z,3.33
2019-04-28T06:28:54.106Z,3.65
2019-04-28T06:31:41.337Z,3.98
2019-04-28T06:34:28.837Z,3.70
2019-04-28T06:37:16.708Z,3.77
2019-04-28T06:40:06.360Z,3.37
2019-04-28T06:42:53.625Z,3.65
2019-04-28T06:45:41.112Z,3.40
2019-04-28T06:48:28.671Z,3.70
2019-04-28T06:51:15.861Z,3.55
2019-04-28T06:54:03.376Z,3.70
2019-04-28T06:56:50.697Z,3.22
2019-04-28T06:59:38.199Z,2.92
2019-04-28T07:02:25.679Z,3.45
2019-04-28T07:05:13.367Z,3.00
2019-04-28T07:08:00.595Z,2.98
2019-04-28T07:10:47.705Z,2.45
2019-04-28T07:13:34.905Z,3.15
2019-04-28T07:16:22.495Z,2.83
2019-04-28T07:19:09.663Z,2.67
2019-04-28T07:22:10.925Z,2.75
2019-04-28T07:24:58.319Z,3.05
2019-04-28T07:27:45.361Z,2.67
2019-04-28T07:30:33.049Z,2.65
2019-04-28T07:33:20.217Z,2.55
2019-04-28T07:36:07.792Z,2.72
2019-04-28T07:38:54.776Z,2.75
2019-04-28T07:41:42.196Z,2.90
2019-04-28T07:44:29.111Z,2.52
2019-04-28T07:47:16.067Z,2.45
2019-04-28T07:50:04.870Z,2.65
2019-04-28T07:52:53.240Z,2.45
2019-04-28T07:55:40.861Z,2.50
2019-04-28T07:58:28.037Z,2.77
2019-04-28T08:01:15.240Z,2.40
2019-04-28T08:04:02.551Z,2.77
2019-04-28T08:06:49.659Z,2.85
2019-04-28T08:09:37.016Z,2.27
2019-04-28T08:12:24.585Z,2.33
2019-04-28T08:15:13.250Z,2.10
2019-04-28T08:18:00.262Z,2.67
2019-04-28T08:20:47.472Z,2.62
2019-04-28T08:23:46.611Z,2.40
2019-04-28T08:26:23.639Z,2.80
2019-04-28T08:29:11.047Z,2.62
2019-04-28T08:32:06.056Z,2.90
2019-04-28T08:34:53.508Z,2.42
2019-04-28T08:37:40.728Z,2.30
2019-04-28T08:40:27.824Z,2.30
2019-04-28T08:43:15.131Z,2.72
2019-04-28T08:46:02.344Z,2.47
2019-04-28T08:48:49.819Z,2.17
2019-04-28T08:51:37.097Z,2.37
2019-04-28T08:54:24.201Z,2.02
2019-04-28T08:57:11.441Z,2.80
2019-04-28T08:59:58.756Z,2.02
2019-04-28T09:02:45.928Z,2.22
2019-04-28T09:05:33.211Z,2.27
2019-04-28T09:08:20.683Z,2.37
2019-04-28T09:11:07.587Z,2.67
2019-04-28T09:13:54.820Z,1.77
2019-04-28T09:16:42.018Z,2.30
2019-04-28T09:19:29.200Z,2.90
2019-04-28T09:22:16.531Z,2.70
2019-04-28T09:25:05.033Z,2.65
2019-04-28T09:27:52.710Z,2.62
2019-04-28T09:30:39.408Z,2.72
2019-04-28T09:33:26.859Z,2.83
2019-04-28T09:36:14.357Z,2.25
2019-04-28T09:39:01.862Z,2.12
2019-04-28T09:42:07.308Z,2.40
2019-04-28T09:44:54.888Z,2.70
2019-04-28T09:47:42.361Z,2.50
2019-04-28T09:50:30.001Z,2.47
2019-04-28T09:53:18.421Z,2.50
2019-04-28T09:56:06.262Z,2.42
2019-04-28T09:58:53.935Z,2.20
2019-04-28T10:01:41.510Z,2.83
2019-04-28T10:04:40.649Z,2.50
2019-04-28T10:07:17.767Z,2.35
2019-04-28T10:10:07.063Z,2.37
2019-04-28T10:12:54.174Z,2.00
2019-04-28T10:15:41.443Z,2.55
2019-04-28T10:18:28.360Z,2.00
2019-04-28T10:21:15.567Z,2.42
2019-04-28T10:24:02.934Z,1.98
2019-04-28T10:26:50.375Z,2.17
2019-04-28T10:29:37.329Z,1.80
2019-04-28T10:32:24.622Z,1.90
2019-04-28T10:35:12.053Z,2.30
2019-04-28T10:37:59.014Z,2.08
2019-04-28T10:41:03.349Z,1.95
2019-04-28T10:43:50.670Z,2.00
2019-04-28T10:46:38.249Z,2.05
2019-04-28T10:49:25.509Z,2.30
2019-04-28T10:52:12.875Z,2.30
2019-04-28T10:55:00.362Z,2.35
2019-04-28T10:57:47.374Z,2.65
2019-04-28T11:00:36.757Z,2.65
2019-04-28T11:03:24.458Z,2.60
2019-04-28T11:06:12.722Z,3.00
2019-04-28T11:09:01.704Z,3.50
2019-04-28T11:11:48.983Z,2.85
2019-04-28T11:14:36.239Z,3.05
2019-04-28T11:17:25.160Z,3.45
2019-04-28T11:20:12.858Z,2.85
2019-04-28T11:23:00.377Z,3.00
2019-04-28T11:25:47.615Z,2.90
2019-04-28T11:28:37.767Z,3.00
2019-04-28T11:31:23.720Z,3.65
2019-04-28T11:34:12.971Z,3.30
2019-04-28T11:37:00.350Z,3.60
2019-04-28T11:39:48.024Z,3.52
2019-04-28T11:42:35.374Z,3.12
2019-04-28T11:45:23.245Z,3.10
2019-04-28T11:48:10.115Z,4.03
2019-04-28T11:50:57.329Z,3.50
2019-04-28T11:53:44.688Z,2.65
2019-04-28T11:56:41.167Z,2.83
2019-04-28T11:59:21.044Z,2.77
2019-04-28T12:02:08.203Z,3.35
2019-04-28T12:04:57.248Z,3.22
2019-04-28T12:07:44.844Z,4.00
2019-04-28T12:10:40.150Z,4.00
2019-04-28T12:13:32.240Z,3.55
2019-04-28T12:16:27.479Z,3.80
2019-04-28T12:19:16.176Z,3.40
2019-04-28T12:22:03.569Z,5.83
2019-04-28T12:24:50.744Z,3.37
2019-04-28T12:27:37.893Z,3.20
2019-04-28T12:30:25.550Z,2.98
2019-04-28T12:33:12.711Z,2.58
2019-04-28T12:35:59.716Z,3.00
2019-04-28T12:38:47.019Z,2.67
2019-04-28T12:41:34.496Z,2.20
2019-04-28T12:44:21.913Z,2.85
2019-04-28T12:47:09.461Z,2.60
2019-04-28T12:49:57.983Z,2.10
2019-04-28T12:52:45.151Z,2.20
2019-04-28T12:55:32.281Z,2.50
2019-04-28T12:58:19.782Z,2.35
2019-04-28T13:01:17.683Z,2.67
2019-04-28T13:04:06.756Z,2.87
2019-04-28T13:07:07.447Z,2.47
2019-04-28T13:09:54.916Z,2.92
2019-04-28T13:12:42.074Z,2.47
2019-04-28T13:15:29.642Z,2.33
2019-04-28T13:18:16.825Z,3.05
2019-04-28T13:21:04.204Z,2.27
2019-04-28T13:23:51.419Z,2.50
2019-04-28T13:26:38.915Z,2.27
2019-04-28T13:29:25.835Z,2.22
2019-04-28T13:32:13.345Z,2.40
2019-04-28T13:35:00.154Z,2.52
2019-04-28T13:37:47.095Z,2.98
2019-04-28T13:40:36.236Z,3.42
2019-04-28T13:43:23.386Z,2.33
2019-04-28T13:46:11.182Z,2.50
2019-04-28T13:48:58.213Z,2.83
2019-04-28T13:51:45.636Z,3.05
2019-04-28T13:54:32.765Z,2.40
2019-04-28T13:57:20.302Z,2.80
2019-04-28T14:00:09.569Z,2.77
2019-04-28T14:02:58.097Z,2.83
2019-04-28T14:05:46.746Z,3.30
2019-04-28T14:08:34.077Z,2.40
2019-04-28T14:11:21.404Z,2.30
2019-04-28T14:14:08.517Z,2.80
2019-04-28T14:16:56.183Z,2.22
2019-04-28T14:19:43.517Z,2.15
2019-04-28T14:22:30.922Z,2.87
2019-04-28T14:25:18.573Z,2.67
2019-04-28T14:28:05.896Z,2.50
2019-04-28T14:30:53.204Z,3.05
2019-04-28T14:33:41.035Z,2.83
2019-04-28T14:36:41.089Z,2.17
2019-04-28T14:39:16.885Z,2.92
2019-04-28T14:42:04.593Z,2.70
2019-04-28T14:44:52.105Z,2.37
2019-04-28T14:47:39.895Z,2.47
2019-04-28T14:50:27.116Z,2.77
2019-04-28T14:53:14.553Z,2.52
2019-04-28T14:56:02.002Z,2.12
2019-04-28T14:58:49.220Z,2.27
2019-04-28T15:01:47.113Z,2.25
2019-04-28T15:04:52.824Z,2.98
2019-04-28T15:07:47.683Z,2.60
2019-04-28T15:10:36.883Z,2.40
2019-04-28T15:13:24.989Z,2.30
2019-04-28T15:16:12.161Z,2.58
2019-04-28T15:18:59.326Z,4.35
2019-04-28T15:21:46.643Z,2.15
2019-04-28T15:24:34.126Z,2.00
2019-04-28T15:27:21.202Z,2.25
2019-04-28T15:30:08.989Z,2.20
2019-04-28T15:32:56.491Z,1.80
2019-04-28T15:35:43.738Z,2.30
2019-04-28T15:38:30.749Z,1.85
2019-04-28T15:41:21.866Z,1.60
2019-04-28T15:44:07.111Z,1.70
2019-04-28T15:46:54.288Z,2.12
2019-04-28T15:49:41.852Z,1.80
2019-04-28T15:52:29.272Z,1.70
2019-04-28T15:55:18.076Z,1.95
2019-04-28T15:58:23.896Z,1.75
2019-04-28T16:01:11.384Z,1.80
2019-04-28T16:03:58.725Z,1.60
2019-04-28T16:06:45.849Z,1.82
2019-04-28T16:09:32.983Z,1.87
2019-04-28T16:12:20.067Z,2.10
2019-04-28T16:15:07.723Z,1.52
2019-04-28T16:17:54.467Z,1.60
2019-04-28T16:20:41.947Z,1.50
2019-04-28T16:23:29.719Z,1.75
2019-04-28T16:26:17.156Z,1.80
2019-04-28T16:29:05.059Z,2.30
2019-04-28T16:31:52.276Z,2.10
2019-04-28T16:34:39.878Z,2.35
2019-04-28T16:37:38.221Z,1.90
2019-04-28T16:40:16.825Z,1.77
2019-04-28T16:43:05.640Z,1.55
2019-04-28T16:45:53.751Z,2.00
2019-04-28T16:48:41.541Z,2.10
2019-04-28T16:51:30.839Z,1.62
2019-04-28T16:54:17.994Z,1.77
2019-04-28T16:57:10.699Z,1.50
2019-04-28T16:59:59.131Z,1.60
2019-04-28T17:02:46.520Z,1.17
2019-04-28T17:05:33.872Z,1.30
2019-04-28T17:08:21.525Z,1.15
2019-04-28T17:11:08.844Z,1.42
2019-04-28T17:13:55.771Z,1.17
2019-04-28T17:16:42.787Z,1.35
2019-04-28T17:19:30.187Z,1.20
2019-04-28T17:22:17.453Z,1.00
2019-04-28T17:25:06.607Z,1.20
2019-04-28T17:27:53.828Z,1.10
2019-04-28T17:30:41.453Z,1.17
2019-04-28T17:33:29.054Z,1.25
2019-04-28T17:36:16.187Z,1.15
2019-04-28T17:39:07.164Z,1.05
2019-04-28T17:41:54.205Z,1.42
2019-04-28T17:44:41.293Z,1.15
2019-04-28T17:47:29.353Z,1.10
2019-04-28T17:50:18.696Z,1.20
2019-04-28T17:53:06.146Z,1.32
2019-04-28T17:55:53.445Z,1.10
2019-04-28T17:58:40.885Z,1.30
2019-04-28T18:01:46.297Z,1.30
2019-04-28T18:04:34.893Z,1.30
2019-04-28T18:07:26.860Z,1.35
2019-04-28T18:10:14.297Z,1.32
2019-04-28T18:13:01.704Z,1.35
2019-04-28T18:15:50.683Z,1.60
2019-04-28T18:18:39.733Z,1.70
2019-04-28T18:21:27.103Z,1.60
2019-04-28T18:27:00.265Z,1.67
2019-04-28T18:29:47.914Z,1.57
2019-04-28T18:32:45.791Z,1.60
2019-04-28T18:35:44.012Z,1.70
2019-04-28T18:38:35.046Z,1.40
2019-04-28T18:41:33.866Z,1.50
2019-04-28T18:44:22.344Z,1.77
2019-04-28T18:47:09.663Z,1.75
2019-04-28T18:49:56.976Z,1.77
2019-04-28T18:52:45.590Z,2.05
2019-04-28T18:55:33.490Z,1.50
2019-04-28T18:58:20.755Z,1.80
2019-04-28T19:01:26.141Z,2.25
2019-04-28T19:04:13.807Z,2.50
2019-04-28T19:07:05.408Z,2.30
2019-04-28T19:10:01.002Z,2.22
2019-04-28T19:13:02.764Z,2.20
2019-04-28T19:16:08.401Z,2.37
2019-04-28T19:18:57.300Z,2.30
2019-04-28T19:21:46.554Z,2.20
2019-04-28T19:24:34.095Z,2.33
2019-04-28T19:27:22.150Z,2.40
2019-04-28T19:30:10.312Z,2.22
2019-04-28T19:32:57.323Z,2.90
2019-04-28T19:35:44.770Z,2.30
2019-04-28T19:38:33.383Z,2.83
2019-04-28T19:41:20.568Z,3.17
2019-04-28T19:44:08.181Z,3.45
2019-04-28T19:46:55.388Z,2.90
2019-04-28T19:49:43.213Z,2.67
2019-04-28T19:52:34.567Z,2.83
2019-04-28T19:55:23.517Z,2.80
2019-04-28T19:58:12.547Z,2.72
2019-04-28T20:01:01.664Z,3.08
2019-04-28T20:03:49.357Z,2.98
2019-04-28T20:06:36.540Z,2.80
2019-04-28T20:09:23.977Z,3.00
2019-04-28T20:12:11.315Z,3.27
2019-04-28T20:14:58.754Z,3.20
2019-04-28T20:17:46.220Z,2.90
2019-04-28T20:20:33.828Z,3.37
2019-04-28T20:23:21.097Z,3.25
2019-04-28T20:26:08.700Z,3.15
2019-04-28T20:28:56.188Z,2.80
2019-04-28T20:31:43.801Z,2.70
2019-04-28T20:34:31.399Z,2.85
2019-04-28T20:37:23.171Z,2.80
2019-04-28T20:40:12.094Z,3.25
2019-04-28T20:43:02.142Z,3.15
2019-04-28T20:45:49.620Z,3.33
2019-04-28T20:48:37.146Z,3.10
2019-04-28T20:51:24.510Z,2.87
2019-04-28T20:54:12.025Z,2.62
2019-04-28T20:56:59.429Z,2.75
2019-04-28T20:59:47.047Z,2.52
2019-04-28T21:02:34.587Z,2.45
2019-04-28T21:05:22.180Z,2.87
2019-04-28T21:08:09.644Z,2.50
2019-04-28T21:10:57.137Z,2.52
2019-04-28T21:13:44.515Z,2.58
2019-04-28T21:16:31.395Z,2.30
2019-04-28T21:19:19.006Z,2.33
2019-04-28T21:22:06.203Z,2.08
2019-04-28T21:24:53.391Z,2.37
2019-04-28T21:27:40.558Z,2.25
2019-04-28T21:30:27.287Z,2.20
2019-04-28T21:33:14.792Z,2.40
2019-04-28T21:36:01.964Z,2.10
2019-04-28T21:38:50.350Z,3.22
2019-04-28T21:41:37.712Z,2.47
2019-04-28T21:44:32.514Z,2.33
2019-04-28T21:47:21.342Z,2.25
2019-04-28T21:50:08.627Z,2.45
2019-04-28T21:52:55.796Z,2.50
2019-04-28T21:55:43.152Z,2.72
2019-04-28T21:58:33.450Z,2.30
2019-04-28T22:01:21.800Z,2.15
2019-04-28T22:04:08.617Z,2.47
2019-04-28T22:06:56.187Z,2.42
2019-04-28T22:09:43.361Z,2.33
2019-04-28T22:12:30.628Z,2.87
2019-04-28T22:15:18.235Z,2.27
2019-04-28T22:18:05.538Z,1.90
2019-04-28T22:20:52.531Z,2.17
2019-04-28T22:23:41.423Z,2.50
2019-04-28T22:26:48.491Z,2.37
2019-04-28T22:29:35.958Z,2.50
2019-04-28T22:32:23.040Z,2.22
2019-04-28T22:35:10.815Z,2.10
2019-04-28T22:37:58.057Z,2.08
2019-04-28T22:40:45.234Z,2.30
2019-04-28T22:43:32.663Z,2.20
2019-04-28T22:46:20.155Z,2.10
2019-04-28T22:49:07.472Z,1.80
2019-04-28T22:51:54.675Z,2.12
2019-04-28T22:54:49.502Z,1.92
2019-04-28T22:57:44.456Z,1.77
2019-04-28T23:00:33.340Z,2.05
2019-04-28T23:03:40.204Z,1.82
2019-04-28T23:06:27.664Z,1.70
2019-04-28T23:09:16.822Z,2.08
2019-04-28T23:12:05.231Z,2.30
2019-04-28T23:14:52.359Z,2.12
2019-04-28T23:17:39.594Z,2.10
2019-04-28T23:23:14.719Z,1.60
2019-04-28T23:26:03.160Z,2.05
2019-04-28T23:28:50.180Z,1.90
2019-04-28T23:31:37.802Z,1.92
2019-04-28T23:34:25.282Z,1.87
2019-04-28T23:37:12.422Z,1.87
2019-04-28T23:39:59.684Z,2.12
2019-04-28T23:42:48.719Z,2.60
2019-04-28T23:45:35.839Z,2.40
2019-04-28T23:48:22.868Z,2.35
2019-04-28T23:51:11.851Z,2.90
2019-04-28T23:54:03.695Z,2.40
2019-04-28T23:56:51.083Z,2.20
2019-04-28T23:59:38.211Z,2.00
